This is the latest recevied weather packets stored in our database for station/object VU3OPZ-13. If no packets are shown the sender has not sent any weather packets the latest 10 day(s).
| Time | Temp. | Humidity | Pressure | Rain* | Wind** | Luminosity | Snow |
|---|---|---|---|---|---|---|---|
| 1787745501 | 27.22° C | 64% | 1009 hPa | 0 mm | - | - | - |
| 1787743697 | 27.78° C | 62% | 1008 hPa | 0 mm | - | - | - |
| 1787741893 | 27.78° C | 62% | 1008 hPa | 0 mm | - | - | - |
| 1787740088 | 28.33° C | 59% | 1008 hPa | 0 mm | - | - | - |
| 1787738284 | 28.33° C | 58% | 1008 hPa | 0 mm | - | - | - |
| 1787736480 | 28.89° C | 57% | 1008 hPa | 0 mm | - | - | - |
| 1787734675 | 28.89° C | 56% | 1008 hPa | 0 mm | - | - | - |
| 1787732871 | 28.33° C | 57% | 1009 hPa | 0 mm | - | - | - |
| 1787731066 | 28.89° C | 56% | 1009 hPa | 0 mm | - | - | - |
| 1787729261 | 28.33° C | 57% | 1010 hPa | 0 mm | - | - | - |
| 1787727457 | 28.33° C | 56% | 1010 hPa | 0 mm | - | - | - |
| 1787725653 | 28.33° C | 58% | 1011 hPa | 0 mm | - | - | - |
| 1787723848 | 28.33° C | 59% | 1011 hPa | 0 mm | - | - | - |
| 1787722043 | 27.78° C | 62% | 1012 hPa | 0 mm | - | - | - |
| 1787720238 | 27.78° C | 61% | 1012 hPa | 0 mm | - | - | - |
| 1787718434 | 26.67° C | 66% | 1012 hPa | 0 mm | - | - | - |
| 1787716629 | 26.67° C | 67% | 1012 hPa | 0 mm | - | - | - |
| 1787714825 | 25° C | 74% | 1012 hPa | 0 mm | - | - | - |
| 1787713021 | 24.44° C | 74% | 1012 hPa | 0 mm | - | - | - |
| 1787711216 | 22.78° C | 85% | 1011 hPa | 0 mm | - | - | - |
| 1787709412 | 22.78° C | 85% | 1011 hPa | 0 mm | - | - | - |
| 1787707608 | 21.67° C | 92% | 1011 hPa | 0 mm | - | - | - |
| 1787705803 | 21.67° C | 92% | 1011 hPa | 0 mm | - | - | - |
| 1787703999 | 21.67° C | 91% | 1010 hPa | 0 mm | - | - | - |
| 1787702195 | 21.67° C | 92% | 1010 hPa | 0 mm | - | - | - |
* Rain latest hour (hover to see other rain measurements)
** Current wind speed in m/s (hover to see current wind gust speed)